Terminal Aerodrome Forecast
Issued by NWS Boise, ID

Home | Current Version | Previous Version | Text Only | Print | Product List | Glossary On
Versions: 1 2 3 4 5 6 7 8 9 10 11 12 13 14 15
000
FTUS45 KBOI 180744 AAB
TAFBOI
TAF AMD
KBOI 180744Z 1808/1906 31020G30KT P6SM VCSH OVC050
     FM181000 31015G25KT P6SM VCSH OVC040
     FM181800 31012G20KT P6SM VCSH BKN035 PROB30 1819/1823
      30015G25KT 4SM -SHSN BKN030
     FM190000 VRB06KT P6SM VCSH SCT030=

USA.gov is the U.S. government's official web portal to all federal, state and local government web resources and services.